sensor_id;sensor_type;location;lat;lon;timestamp;P1;durP1;ratioP1;P2;durP2;ratioP2
41480;SDS011;27217;51.220;5.308;2023-03-31T00:00:10;7.95;;;1.50;;
41480;SDS011;27217;51.220;5.308;2023-03-31T00:03:16;17.70;;;2.53;;
41480;SDS011;27217;51.220;5.308;2023-03-31T00:06:29;12.23;;;2.13;;
41480;SDS011;27217;51.220;5.308;2023-03-31T00:09:34;14.35;;;1.92;;
41480;SDS011;27217;51.220;5.308;2023-03-31T00:12:43;18.08;;;2.30;;
41480;SDS011;27217;51.220;5.308;2023-03-31T00:15:48;18.92;;;2.58;;
41480;SDS011;27217;51.220;5.308;2023-03-31T00:18:54;9.82;;;1.70;;
41480;SDS011;27217;51.220;5.308;2023-03-31T00:21:59;15.60;;;1.77;;
41480;SDS011;27217;51.220;5.308;2023-03-31T00:25:10;12.18;;;1.85;;
41480;SDS011;27217;51.220;5.308;2023-03-31T00:28:16;15.80;;;2.28;;
41480;SDS011;27217;51.220;5.308;2023-03-31T00:31:21;10.20;;;2.10;;
41480;SDS011;27217;51.220;5.308;2023-03-31T00:34:27;18.77;;;2.42;;
41480;SDS011;27217;51.220;5.308;2023-03-31T00:37:33;11.20;;;2.10;;
41480;SDS011;27217;51.220;5.308;2023-03-31T00:40:43;7.45;;;1.40;;
41480;SDS011;27217;51.220;5.308;2023-03-31T00:46:31;19.27;;;2.10;;
41480;SDS011;27217;51.220;5.308;2023-03-31T00:49:38;13.38;;;2.10;;
41480;SDS011;27217;51.220;5.308;2023-03-31T00:52:44;13.98;;;1.77;;
41480;SDS011;27217;51.220;5.308;2023-03-31T00:55:54;11.52;;;2.30;;
41480;SDS011;27217;51.220;5.308;2023-03-31T00:58:56;12.88;;;1.85;;
41480;SDS011;27217;51.220;5.308;2023-03-31T01:02:02;9.40;;;1.65;;
41480;SDS011;27217;51.220;5.308;2023-03-31T01:05:15;17.45;;;1.98;;
41480;SDS011;27217;51.220;5.308;2023-03-31T01:08:25;13.88;;;1.50;;
41480;SDS011;27217;51.220;5.308;2023-03-31T01:11:33;3.30;;;0.77;;
41480;SDS011;27217;51.220;5.308;2023-03-31T01:14:38;0.00;;;0.00;;
41480;SDS011;27217;51.220;5.308;2023-03-31T01:17:44;0.08;;;0.08;;
41480;SDS011;27217;51.220;5.308;2023-03-31T01:34:56;0.47;;;0.47;;
41480;SDS011;27217;51.220;5.308;2023-03-31T01:40:48;0.03;;;0.03;;
41480;SDS011;27217;51.220;5.308;2023-03-31T01:46:34;0.20;;;0.20;;
41480;SDS011;27217;51.220;5.308;2023-03-31T01:50:01;0.08;;;0.08;;
41480;SDS011;27217;51.220;5.308;2023-03-31T01:52:57;0.15;;;0.15;;
41480;SDS011;27217;51.220;5.308;2023-03-31T01:56:15;0.00;;;0.00;;
41480;SDS011;27217;51.220;5.308;2023-03-31T02:02:12;0.00;;;0.00;;
41480;SDS011;27217;51.220;5.308;2023-03-31T02:05:22;0.57;;;0.57;;
41480;SDS011;27217;51.220;5.308;2023-03-31T02:08:30;0.27;;;0.27;;
41480;SDS011;27217;51.220;5.308;2023-03-31T02:11:35;0.20;;;0.20;;
41480;SDS011;27217;51.220;5.308;2023-03-31T02:14:43;0.43;;;0.43;;
41480;SDS011;27217;51.220;5.308;2023-03-31T02:17:47;0.00;;;0.00;;
41480;SDS011;27217;51.220;5.308;2023-03-31T02:20:54;0.05;;;0.05;;
41480;SDS011;27217;51.220;5.308;2023-03-31T02:24:01;0.00;;;0.00;;
41480;SDS011;27217;51.220;5.308;2023-03-31T02:27:08;1.45;;;1.30;;
41480;SDS011;27217;51.220;5.308;2023-03-31T02:30:14;0.00;;;0.00;;
41480;SDS011;27217;51.220;5.308;2023-03-31T02:33:26;0.00;;;0.00;;
41480;SDS011;27217;51.220;5.308;2023-03-31T02:36:32;0.00;;;0.00;;
41480;SDS011;27217;51.220;5.308;2023-03-31T02:39:37;0.00;;;0.00;;
41480;SDS011;27217;51.220;5.308;2023-03-31T02:42:42;0.50;;;0.50;;
41480;SDS011;27217;51.220;5.308;2023-03-31T02:45:49;0.00;;;0.00;;
41480;SDS011;27217;51.220;5.308;2023-03-31T02:49:00;5.50;;;0.85;;
41480;SDS011;27217;51.220;5.308;2023-03-31T02:58:06;0.00;;;0.00;;
41480;SDS011;27217;51.220;5.308;2023-03-31T03:01:10;0.00;;;0.00;;
41480;SDS011;27217;51.220;5.308;2023-03-31T03:15:19;0.00;;;0.00;;
41480;SDS011;27217;51.220;5.308;2023-03-31T03:18:28;0.00;;;0.00;;
41480;SDS011;27217;51.220;5.308;2023-03-31T03:21:37;0.00;;;0.00;;
41480;SDS011;27217;51.220;5.308;2023-03-31T03:24:42;0.00;;;0.00;;
41480;SDS011;27217;51.220;5.308;2023-03-31T03:27:48;0.00;;;0.00;;
41480;SDS011;27217;51.220;5.308;2023-03-31T03:30:54;1.35;;;1.25;;
41480;SDS011;27217;51.220;5.308;2023-03-31T03:34:00;0.15;;;0.15;;
41480;SDS011;27217;51.220;5.308;2023-03-31T03:37:05;0.03;;;0.03;;
41480;SDS011;27217;51.220;5.308;2023-03-31T03:40:11;0.00;;;0.00;;
41480;SDS011;27217;51.220;5.308;2023-03-31T03:43:16;1.65;;;0.75;;
41480;SDS011;27217;51.220;5.308;2023-03-31T03:46:22;0.10;;;0.10;;
41480;SDS011;27217;51.220;5.308;2023-03-31T03:49:28;0.00;;;0.00;;
41480;SDS011;27217;51.220;5.308;2023-03-31T03:52:33;0.85;;;0.55;;
41480;SDS011;27217;51.220;5.308;2023-03-31T03:55:39;1.98;;;1.08;;
41480;SDS011;27217;51.220;5.308;2023-03-31T03:58:46;0.00;;;0.00;;
41480;SDS011;27217;51.220;5.308;2023-03-31T04:01:51;0.73;;;0.30;;
41480;SDS011;27217;51.220;5.308;2023-03-31T04:04:59;0.00;;;0.00;;
41480;SDS011;27217;51.220;5.308;2023-03-31T04:08:04;0.00;;;0.00;;
41480;SDS011;27217;51.220;5.308;2023-03-31T04:11:14;0.00;;;0.00;;
41480;SDS011;27217;51.220;5.308;2023-03-31T04:13:59;0.05;;;0.05;;
41480;SDS011;27217;51.220;5.308;2023-03-31T04:17:04;0.08;;;0.08;;
41480;SDS011;27217;51.220;5.308;2023-03-31T04:20:15;0.00;;;0.00;;
41480;SDS011;27217;51.220;5.308;2023-03-31T04:23:30;0.00;;;0.00;;
41480;SDS011;27217;51.220;5.308;2023-03-31T04:26:36;0.00;;;0.00;;
41480;SDS011;27217;51.220;5.308;2023-03-31T04:29:42;3.63;;;1.98;;
41480;SDS011;27217;51.220;5.308;2023-03-31T04:32:51;0.00;;;0.00;;
41480;SDS011;27217;51.220;5.308;2023-03-31T04:35:54;0.00;;;0.00;;
41480;SDS011;27217;51.220;5.308;2023-03-31T04:38:59;0.22;;;0.20;;
41480;SDS011;27217;51.220;5.308;2023-03-31T04:42:05;0.00;;;0.00;;
41480;SDS011;27217;51.220;5.308;2023-03-31T04:45:11;0.60;;;0.60;;
41480;SDS011;27217;51.220;5.308;2023-03-31T04:48:17;0.00;;;0.00;;
41480;SDS011;27217;51.220;5.308;2023-03-31T04:51:23;0.00;;;0.00;;
41480;SDS011;27217;51.220;5.308;2023-03-31T04:54:30;0.00;;;0.00;;
41480;SDS011;27217;51.220;5.308;2023-03-31T04:57:35;0.10;;;0.10;;
41480;SDS011;27217;51.220;5.308;2023-03-31T05:00:41;0.00;;;0.00;;
41480;SDS011;27217;51.220;5.308;2023-03-31T05:03:46;0.00;;;0.00;;
41480;SDS011;27217;51.220;5.308;2023-03-31T05:06:52;0.00;;;0.00;;
41480;SDS011;27217;51.220;5.308;2023-03-31T05:09:57;0.00;;;0.00;;
41480;SDS011;27217;51.220;5.308;2023-03-31T05:13:03;0.00;;;0.00;;
41480;SDS011;27217;51.220;5.308;2023-03-31T05:16:11;0.00;;;0.00;;
41480;SDS011;27217;51.220;5.308;2023-03-31T05:19:14;0.03;;;0.03;;
41480;SDS011;27217;51.220;5.308;2023-03-31T05:22:19;1.77;;;0.63;;
41480;SDS011;27217;51.220;5.308;2023-03-31T05:25:25;0.00;;;0.00;;
41480;SDS011;27217;51.220;5.308;2023-03-31T05:28:32;0.00;;;0.00;;
41480;SDS011;27217;51.220;5.308;2023-03-31T05:31:37;0.00;;;0.00;;
41480;SDS011;27217;51.220;5.308;2023-03-31T05:34:43;0.00;;;0.00;;
41480;SDS011;27217;51.220;5.308;2023-03-31T05:37:48;1.45;;;0.75;;
41480;SDS011;27217;51.220;5.308;2023-03-31T05:40:55;0.00;;;0.00;;
41480;SDS011;27217;51.220;5.308;2023-03-31T05:44:01;0.00;;;0.00;;
41480;SDS011;27217;51.220;5.308;2023-03-31T05:47:06;0.00;;;0.00;;
41480;SDS011;27217;51.220;5.308;2023-03-31T05:50:12;0.10;;;0.10;;
41480;SDS011;27217;51.220;5.308;2023-03-31T05:53:17;0.20;;;0.20;;
41480;SDS011;27217;51.220;5.308;2023-03-31T05:56:23;0.22;;;0.22;;
41480;SDS011;27217;51.220;5.308;2023-03-31T05:59:29;1.45;;;0.70;;
41480;SDS011;27217;51.220;5.308;2023-03-31T06:02:35;0.70;;;0.70;;
41480;SDS011;27217;51.220;5.308;2023-03-31T06:05:46;0.10;;;0.10;;
41480;SDS011;27217;51.220;5.308;2023-03-31T06:08:50;0.40;;;0.40;;
41480;SDS011;27217;51.220;5.308;2023-03-31T06:11:55;0.52;;;0.52;;
41480;SDS011;27217;51.220;5.308;2023-03-31T06:15:01;0.00;;;0.00;;
41480;SDS011;27217;51.220;5.308;2023-03-31T06:18:06;1.75;;;1.20;;
41480;SDS011;27217;51.220;5.308;2023-03-31T06:21:13;0.00;;;0.00;;
41480;SDS011;27217;51.220;5.308;2023-03-31T06:24:18;0.25;;;0.20;;
41480;SDS011;27217;51.220;5.308;2023-03-31T06:27:23;0.00;;;0.00;;
41480;SDS011;27217;51.220;5.308;2023-03-31T06:30:30;1.75;;;1.45;;
41480;SDS011;27217;51.220;5.308;2023-03-31T06:33:39;0.63;;;0.28;;
41480;SDS011;27217;51.220;5.308;2023-03-31T06:36:44;0.22;;;0.22;;
41480;SDS011;27217;51.220;5.308;2023-03-31T06:39:49;0.00;;;0.00;;
41480;SDS011;27217;51.220;5.308;2023-03-31T06:42:55;0.00;;;0.00;;
41480;SDS011;27217;51.220;5.308;2023-03-31T06:46:00;3.20;;;1.25;;
41480;SDS011;27217;51.220;5.308;2023-03-31T06:49:06;0.15;;;0.15;;
41480;SDS011;27217;51.220;5.308;2023-03-31T06:52:12;0.00;;;0.00;;
41480;SDS011;27217;51.220;5.308;2023-03-31T06:55:19;1.48;;;1.05;;
41480;SDS011;27217;51.220;5.308;2023-03-31T06:58:24;4.18;;;1.63;;
41480;SDS011;27217;51.220;5.308;2023-03-31T07:01:30;0.10;;;0.10;;
41480;SDS011;27217;51.220;5.308;2023-03-31T07:04:35;0.15;;;0.15;;
41480;SDS011;27217;51.220;5.308;2023-03-31T07:07:44;0.00;;;0.00;;
41480;SDS011;27217;51.220;5.308;2023-03-31T07:10:53;0.17;;;0.17;;
41480;SDS011;27217;51.220;5.308;2023-03-31T07:13:55;0.10;;;0.10;;
41480;SDS011;27217;51.220;5.308;2023-03-31T07:17:01;0.00;;;0.00;;
41480;SDS011;27217;51.220;5.308;2023-03-31T07:20:07;0.00;;;0.00;;
41480;SDS011;27217;51.220;5.308;2023-03-31T07:23:11;0.00;;;0.00;;
41480;SDS011;27217;51.220;5.308;2023-03-31T07:26:17;0.00;;;0.00;;
41480;SDS011;27217;51.220;5.308;2023-03-31T07:29:22;0.43;;;0.40;;
41480;SDS011;27217;51.220;5.308;2023-03-31T07:32:29;0.15;;;0.15;;
41480;SDS011;27217;51.220;5.308;2023-03-31T07:35:38;0.00;;;0.00;;
41480;SDS011;27217;51.220;5.308;2023-03-31T07:38:43;0.00;;;0.00;;
41480;SDS011;27217;51.220;5.308;2023-03-31T07:41:48;1.45;;;0.80;;
41480;SDS011;27217;51.220;5.308;2023-03-31T07:44:54;0.20;;;0.20;;
41480;SDS011;27217;51.220;5.308;2023-03-31T07:48:00;0.00;;;0.00;;
41480;SDS011;27217;51.220;5.308;2023-03-31T07:51:05;0.00;;;0.00;;
41480;SDS011;27217;51.220;5.308;2023-03-31T07:54:14;0.22;;;0.22;;
41480;SDS011;27217;51.220;5.308;2023-03-31T07:57:19;0.70;;;0.70;;
41480;SDS011;27217;51.220;5.308;2023-03-31T08:00:25;0.10;;;0.10;;
41480;SDS011;27217;51.220;5.308;2023-03-31T08:03:31;4.38;;;1.65;;
41480;SDS011;27217;51.220;5.308;2023-03-31T08:06:38;0.00;;;0.00;;
41480;SDS011;27217;51.220;5.308;2023-03-31T08:09:44;1.08;;;0.43;;
41480;SDS011;27217;51.220;5.308;2023-03-31T08:12:48;0.65;;;0.65;;
41480;SDS011;27217;51.220;5.308;2023-03-31T08:15:54;1.10;;;1.10;;
41480;SDS011;27217;51.220;5.308;2023-03-31T08:19:00;0.00;;;0.00;;
41480;SDS011;27217;51.220;5.308;2023-03-31T08:22:06;0.00;;;0.00;;
41480;SDS011;27217;51.220;5.308;2023-03-31T08:25:11;0.00;;;0.00;;
41480;SDS011;27217;51.220;5.308;2023-03-31T08:28:17;0.28;;;0.28;;
41480;SDS011;27217;51.220;5.308;2023-03-31T08:31:23;0.40;;;0.40;;
41480;SDS011;27217;51.220;5.308;2023-03-31T08:34:28;0.00;;;0.00;;
41480;SDS011;27217;51.220;5.308;2023-03-31T08:37:34;0.00;;;0.00;;
41480;SDS011;27217;51.220;5.308;2023-03-31T08:40:40;0.00;;;0.00;;
41480;SDS011;27217;51.220;5.308;2023-03-31T08:43:45;0.10;;;0.10;;
41480;SDS011;27217;51.220;5.308;2023-03-31T08:46:54;0.10;;;0.10;;
41480;SDS011;27217;51.220;5.308;2023-03-31T08:50:10;0.00;;;0.00;;
41480;SDS011;27217;51.220;5.308;2023-03-31T08:55:58;0.43;;;0.32;;
41480;SDS011;27217;51.220;5.308;2023-03-31T08:59:04;0.00;;;0.00;;
41480;SDS011;27217;51.220;5.308;2023-03-31T09:05:26;4.38;;;2.05;;
41480;SDS011;27217;51.220;5.308;2023-03-31T09:08:31;1.20;;;0.47;;
41480;SDS011;27217;51.220;5.308;2023-03-31T09:12:10;0.00;;;0.00;;
41480;SDS011;27217;51.220;5.308;2023-03-31T09:17:40;0.00;;;0.00;;
41480;SDS011;27217;51.220;5.308;2023-03-31T09:20:49;0.35;;;0.35;;
41480;SDS011;27217;51.220;5.308;2023-03-31T09:23:38;0.00;;;0.00;;
41480;SDS011;27217;51.220;5.308;2023-03-31T09:32:30;20.83;;;3.47;;
41480;SDS011;27217;51.220;5.308;2023-03-31T09:35:35;13.45;;;2.22;;
41480;SDS011;27217;51.220;5.308;2023-03-31T09:38:41;10.65;;;2.30;;
41480;SDS011;27217;51.220;5.308;2023-03-31T09:41:48;16.98;;;2.60;;
41480;SDS011;27217;51.220;5.308;2023-03-31T09:44:52;21.52;;;2.72;;
41480;SDS011;27217;51.220;5.308;2023-03-31T09:48:04;14.73;;;2.80;;
41480;SDS011;27217;51.220;5.308;2023-03-31T09:51:19;12.60;;;2.20;;
41480;SDS011;27217;51.220;5.308;2023-03-31T09:54:24;10.63;;;1.70;;
41480;SDS011;27217;51.220;5.308;2023-03-31T09:57:34;13.48;;;2.47;;
41480;SDS011;27217;51.220;5.308;2023-03-31T10:00:39;6.15;;;1.38;;
41480;SDS011;27217;51.220;5.308;2023-03-31T10:03:54;6.55;;;1.42;;
41480;SDS011;27217;51.220;5.308;2023-03-31T10:07:06;10.13;;;1.67;;
41480;SDS011;27217;51.220;5.308;2023-03-31T10:10:18;17.80;;;2.90;;
41480;SDS011;27217;51.220;5.308;2023-03-31T10:13:24;13.65;;;1.85;;
41480;SDS011;27217;51.220;5.308;2023-03-31T10:22:42;12.75;;;2.33;;
41480;SDS011;27217;51.220;5.308;2023-03-31T10:25:42;12.15;;;2.42;;
41480;SDS011;27217;51.220;5.308;2023-03-31T10:28:49;13.57;;;2.58;;
41480;SDS011;27217;51.220;5.308;2023-03-31T10:31:53;15.45;;;3.13;;
41480;SDS011;27217;51.220;5.308;2023-03-31T10:35:06;13.82;;;2.35;;
41480;SDS011;27217;51.220;5.308;2023-03-31T10:38:20;12.25;;;2.83;;
41480;SDS011;27217;51.220;5.308;2023-03-31T10:41:26;12.85;;;2.30;;
41480;SDS011;27217;51.220;5.308;2023-03-31T10:44:34;18.17;;;2.80;;
41480;SDS011;27217;51.220;5.308;2023-03-31T10:47:39;14.02;;;2.30;;
41480;SDS011;27217;51.220;5.308;2023-03-31T10:50:45;17.73;;;2.95;;
41480;SDS011;27217;51.220;5.308;2023-03-31T10:54:07;20.80;;;3.35;;
41480;SDS011;27217;51.220;5.308;2023-03-31T10:57:11;16.48;;;2.45;;
41480;SDS011;27217;51.220;5.308;2023-03-31T11:00:11;13.45;;;2.40;;
41480;SDS011;27217;51.220;5.308;2023-03-31T11:09:03;15.60;;;2.25;;
41480;SDS011;27217;51.220;5.308;2023-03-31T11:23:41;15.15;;;3.85;;
41480;SDS011;27217;51.220;5.308;2023-03-31T11:27:03;15.32;;;2.50;;
41480;SDS011;27217;51.220;5.308;2023-03-31T11:32:55;13.32;;;2.85;;
41480;SDS011;27217;51.220;5.308;2023-03-31T11:36:25;9.80;;;1.77;;
41480;SDS011;27217;51.220;5.308;2023-03-31T11:41:38;10.77;;;1.80;;
41480;SDS011;27217;51.220;5.308;2023-03-31T11:44:46;11.75;;;2.38;;
41480;SDS011;27217;51.220;5.308;2023-03-31T11:48:04;9.43;;;1.65;;
41480;SDS011;27217;51.220;5.308;2023-03-31T11:51:13;17.77;;;2.63;;
41480;SDS011;27217;51.220;5.308;2023-03-31T11:54:19;16.40;;;2.92;;
41480;SDS011;27217;51.220;5.308;2023-03-31T12:05:52;19.83;;;2.83;;
41480;SDS011;27217;51.220;5.308;2023-03-31T12:14:00;16.85;;;2.45;;
41480;SDS011;27217;51.220;5.308;2023-03-31T12:24:36;9.57;;;1.90;;
41480;SDS011;27217;51.220;5.308;2023-03-31T12:27:42;19.63;;;2.42;;
41480;SDS011;27217;51.220;5.308;2023-03-31T12:30:47;10.88;;;1.80;;
41480;SDS011;27217;51.220;5.308;2023-03-31T12:33:54;10.70;;;2.17;;
41480;SDS011;27217;51.220;5.308;2023-03-31T12:37:07;15.60;;;2.83;;
41480;SDS011;27217;51.220;5.308;2023-03-31T12:43:36;12.65;;;2.20;;
41480;SDS011;27217;51.220;5.308;2023-03-31T12:52:06;9.10;;;1.85;;
41480;SDS011;27217;51.220;5.308;2023-03-31T13:04:20;14.23;;;2.75;;
41480;SDS011;27217;51.220;5.308;2023-03-31T13:09:55;15.13;;;2.35;;
41480;SDS011;27217;51.220;5.308;2023-03-31T13:12:40;23.20;;;3.33;;
41480;SDS011;27217;51.220;5.308;2023-03-31T13:15:49;13.35;;;1.92;;
41480;SDS011;27217;51.220;5.308;2023-03-31T13:18:54;19.50;;;2.30;;
41480;SDS011;27217;51.220;5.308;2023-03-31T13:22:35;18.65;;;2.78;;
41480;SDS011;27217;51.220;5.308;2023-03-31T13:25:43;14.35;;;1.80;;
41480;SDS011;27217;51.220;5.308;2023-03-31T13:28:52;12.13;;;2.35;;
41480;SDS011;27217;51.220;5.308;2023-03-31T13:34:25;11.02;;;2.25;;
41480;SDS011;27217;51.220;5.308;2023-03-31T13:49:48;9.27;;;1.60;;
41480;SDS011;27217;51.220;5.308;2023-03-31T13:55:53;6.65;;;1.27;;
41480;SDS011;27217;51.220;5.308;2023-03-31T13:58:58;9.90;;;1.20;;
41480;SDS011;27217;51.220;5.308;2023-03-31T14:04:15;5.03;;;0.75;;
41480;SDS011;27217;51.220;5.308;2023-03-31T14:07:08;7.18;;;1.30;;
41480;SDS011;27217;51.220;5.308;2023-03-31T14:10:23;7.57;;;1.42;;
41480;SDS011;27217;51.220;5.308;2023-03-31T14:13:28;6.75;;;1.55;;
41480;SDS011;27217;51.220;5.308;2023-03-31T14:16:44;3.35;;;0.90;;
41480;SDS011;27217;51.220;5.308;2023-03-31T14:28:55;5.55;;;1.05;;
41480;SDS011;27217;51.220;5.308;2023-03-31T14:34:40;3.08;;;0.80;;
41480;SDS011;27217;51.220;5.308;2023-03-31T14:37:27;2.97;;;0.70;;
41480;SDS011;27217;51.220;5.308;2023-03-31T14:40:41;6.10;;;0.75;;
41480;SDS011;27217;51.220;5.308;2023-03-31T14:43:44;1.60;;;0.60;;
41480;SDS011;27217;51.220;5.308;2023-03-31T14:46:46;4.07;;;1.02;;
41480;SDS011;27217;51.220;5.308;2023-03-31T14:50:14;3.33;;;0.70;;
41480;SDS011;27217;51.220;5.308;2023-03-31T14:53:12;2.90;;;0.93;;
41480;SDS011;27217;51.220;5.308;2023-03-31T14:56:15;2.67;;;0.47;;
41480;SDS011;27217;51.220;5.308;2023-03-31T14:59:20;3.95;;;0.80;;
41480;SDS011;27217;51.220;5.308;2023-03-31T15:02:33;2.72;;;1.20;;
41480;SDS011;27217;51.220;5.308;2023-03-31T15:05:38;5.88;;;1.80;;
41480;SDS011;27217;51.220;5.308;2023-03-31T15:08:43;6.22;;;1.52;;
41480;SDS011;27217;51.220;5.308;2023-03-31T15:11:52;8.48;;;1.60;;
41480;SDS011;27217;51.220;5.308;2023-03-31T15:14:56;4.00;;;1.50;;
41480;SDS011;27217;51.220;5.308;2023-03-31T15:18:00;3.58;;;1.05;;
41480;SDS011;27217;51.220;5.308;2023-03-31T15:21:08;4.78;;;1.45;;
41480;SDS011;27217;51.220;5.308;2023-03-31T15:24:12;4.22;;;1.00;;
41480;SDS011;27217;51.220;5.308;2023-03-31T15:27:29;3.90;;;1.20;;
41480;SDS011;27217;51.220;5.308;2023-03-31T15:30:19;4.35;;;1.20;;
41480;SDS011;27217;51.220;5.308;2023-03-31T15:33:26;2.80;;;1.00;;
41480;SDS011;27217;51.220;5.308;2023-03-31T15:36:29;2.80;;;0.85;;
41480;SDS011;27217;51.220;5.308;2023-03-31T15:39:35;1.25;;;0.80;;
41480;SDS011;27217;51.220;5.308;2023-03-31T15:42:40;2.53;;;0.65;;
41480;SDS011;27217;51.220;5.308;2023-03-31T15:45:35;4.00;;;0.80;;
41480;SDS011;27217;51.220;5.308;2023-03-31T15:48:53;4.30;;;0.70;;
41480;SDS011;27217;51.220;5.308;2023-03-31T15:52:15;2.40;;;0.75;;
41480;SDS011;27217;51.220;5.308;2023-03-31T15:58:08;2.28;;;0.68;;
41480;SDS011;27217;51.220;5.308;2023-03-31T16:01:31;3.65;;;0.30;;
41480;SDS011;27217;51.220;5.308;2023-03-31T16:04:36;1.70;;;0.50;;
41480;SDS011;27217;51.220;5.308;2023-03-31T16:07:42;3.97;;;0.47;;
41480;SDS011;27217;51.220;5.308;2023-03-31T16:10:48;0.47;;;0.22;;
41480;SDS011;27217;51.220;5.308;2023-03-31T16:13:59;2.15;;;0.75;;
41480;SDS011;27217;51.220;5.308;2023-03-31T16:17:06;4.78;;;0.60;;
41480;SDS011;27217;51.220;5.308;2023-03-31T16:20:18;2.00;;;0.70;;
41480;SDS011;27217;51.220;5.308;2023-03-31T16:23:23;2.85;;;0.52;;
41480;SDS011;27217;51.220;5.308;2023-03-31T16:26:28;2.58;;;0.70;;
41480;SDS011;27217;51.220;5.308;2023-03-31T16:29:34;2.65;;;1.10;;
41480;SDS011;27217;51.220;5.308;2023-03-31T16:32:58;1.70;;;0.60;;
41480;SDS011;27217;51.220;5.308;2023-03-31T16:36:03;3.83;;;1.35;;
41480;SDS011;27217;51.220;5.308;2023-03-31T16:39:09;1.17;;;0.47;;
41480;SDS011;27217;51.220;5.308;2023-03-31T16:42:15;2.60;;;0.50;;
41480;SDS011;27217;51.220;5.308;2023-03-31T16:45:20;1.17;;;0.50;;
41480;SDS011;27217;51.220;5.308;2023-03-31T16:48:29;4.75;;;0.50;;
41480;SDS011;27217;51.220;5.308;2023-03-31T16:51:34;1.27;;;1.17;;
41480;SDS011;27217;51.220;5.308;2023-03-31T16:54:41;1.73;;;0.52;;
41480;SDS011;27217;51.220;5.308;2023-03-31T16:57:46;2.92;;;0.47;;
41480;SDS011;27217;51.220;5.308;2023-03-31T17:00:55;6.97;;;0.90;;
41480;SDS011;27217;51.220;5.308;2023-03-31T17:04:00;1.98;;;0.63;;
41480;SDS011;27217;51.220;5.308;2023-03-31T17:07:06;2.45;;;0.50;;
41480;SDS011;27217;51.220;5.308;2023-03-31T17:10:11;2.35;;;0.60;;
41480;SDS011;27217;51.220;5.308;2023-03-31T17:13:17;4.18;;;0.90;;
41480;SDS011;27217;51.220;5.308;2023-03-31T17:16:24;3.22;;;1.33;;
41480;SDS011;27217;51.220;5.308;2023-03-31T17:19:29;6.63;;;0.88;;
41480;SDS011;27217;51.220;5.308;2023-03-31T17:22:35;3.80;;;1.05;;
41480;SDS011;27217;51.220;5.308;2023-03-31T17:25:51;3.08;;;0.63;;
41480;SDS011;27217;51.220;5.308;2023-03-31T17:28:47;11.23;;;1.20;;
41480;SDS011;27217;51.220;5.308;2023-03-31T17:31:53;4.40;;;0.95;;
41480;SDS011;27217;51.220;5.308;2023-03-31T17:34:58;6.10;;;1.13;;
41480;SDS011;27217;51.220;5.308;2023-03-31T17:38:04;5.38;;;1.48;;
41480;SDS011;27217;51.220;5.308;2023-03-31T17:41:10;5.57;;;0.77;;
41480;SDS011;27217;51.220;5.308;2023-03-31T17:44:15;6.90;;;1.73;;
41480;SDS011;27217;51.220;5.308;2023-03-31T17:47:22;6.90;;;1.13;;
41480;SDS011;27217;51.220;5.308;2023-03-31T17:50:30;4.82;;;1.05;;
41480;SDS011;27217;51.220;5.308;2023-03-31T17:53:37;4.90;;;1.48;;
41480;SDS011;27217;51.220;5.308;2023-03-31T17:56:44;7.18;;;1.17;;
41480;SDS011;27217;51.220;5.308;2023-03-31T17:59:49;5.55;;;0.88;;
41480;SDS011;27217;51.220;5.308;2023-03-31T18:02:57;5.78;;;1.15;;
41480;SDS011;27217;51.220;5.308;2023-03-31T18:06:04;5.97;;;1.00;;
41480;SDS011;27217;51.220;5.308;2023-03-31T18:09:11;10.10;;;1.20;;
41480;SDS011;27217;51.220;5.308;2023-03-31T18:12:17;8.07;;;1.30;;
41480;SDS011;27217;51.220;5.308;2023-03-31T18:15:23;5.72;;;1.38;;
41480;SDS011;27217;51.220;5.308;2023-03-31T18:18:36;7.75;;;1.77;;
41480;SDS011;27217;51.220;5.308;2023-03-31T18:21:42;4.65;;;0.98;;
41480;SDS011;27217;51.220;5.308;2023-03-31T18:24:47;8.10;;;1.75;;
41480;SDS011;27217;51.220;5.308;2023-03-31T18:27:53;4.28;;;0.73;;
41480;SDS011;27217;51.220;5.308;2023-03-31T18:31:05;3.45;;;1.13;;
41480;SDS011;27217;51.220;5.308;2023-03-31T18:34:07;7.63;;;1.42;;
41480;SDS011;27217;51.220;5.308;2023-03-31T18:37:13;3.55;;;0.70;;
41480;SDS011;27217;51.220;5.308;2023-03-31T18:40:18;7.03;;;1.30;;
41480;SDS011;27217;51.220;5.308;2023-03-31T18:43:24;6.50;;;1.23;;
41480;SDS011;27217;51.220;5.308;2023-03-31T18:46:30;7.40;;;1.00;;
41480;SDS011;27217;51.220;5.308;2023-03-31T18:49:35;8.57;;;1.27;;
41480;SDS011;27217;51.220;5.308;2023-03-31T18:52:41;8.57;;;1.20;;
41480;SDS011;27217;51.220;5.308;2023-03-31T18:55:47;6.90;;;2.25;;
41480;SDS011;27217;51.220;5.308;2023-03-31T18:58:52;9.60;;;1.45;;
41480;SDS011;27217;51.220;5.308;2023-03-31T19:04:44;8.30;;;1.27;;
41480;SDS011;27217;51.220;5.308;2023-03-31T19:07:49;9.85;;;1.38;;
41480;SDS011;27217;51.220;5.308;2023-03-31T19:11:09;7.00;;;1.33;;
41480;SDS011;27217;51.220;5.308;2023-03-31T19:14:10;4.20;;;1.40;;
41480;SDS011;27217;51.220;5.308;2023-03-31T19:17:19;13.20;;;1.50;;
41480;SDS011;27217;51.220;5.308;2023-03-31T19:20:22;7.82;;;1.65;;
41480;SDS011;27217;51.220;5.308;2023-03-31T19:23:28;6.78;;;1.67;;
41480;SDS011;27217;51.220;5.308;2023-03-31T19:26:34;8.23;;;1.63;;
41480;SDS011;27217;51.220;5.308;2023-03-31T19:29:40;9.13;;;2.03;;
41480;SDS011;27217;51.220;5.308;2023-03-31T19:32:46;13.93;;;2.08;;
41480;SDS011;27217;51.220;5.308;2023-03-31T19:35:51;11.07;;;1.70;;
41480;SDS011;27217;51.220;5.308;2023-03-31T19:38:57;8.55;;;1.63;;
41480;SDS011;27217;51.220;5.308;2023-03-31T19:42:02;13.57;;;1.70;;
41480;SDS011;27217;51.220;5.308;2023-03-31T19:45:08;10.43;;;2.35;;
41480;SDS011;27217;51.220;5.308;2023-03-31T19:48:14;14.48;;;2.75;;
41480;SDS011;27217;51.220;5.308;2023-03-31T19:51:19;2.20;;;0.57;;
41480;SDS011;27217;51.220;5.308;2023-03-31T19:54:25;0.00;;;0.00;;
41480;SDS011;27217;51.220;5.308;2023-03-31T19:57:50;14.75;;;1.85;;
41480;SDS011;27217;51.220;5.308;2023-03-31T20:00:59;0.00;;;0.00;;
41480;SDS011;27217;51.220;5.308;2023-03-31T20:04:07;0.38;;;0.35;;
41480;SDS011;27217;51.220;5.308;2023-03-31T20:07:13;0.00;;;0.00;;
41480;SDS011;27217;51.220;5.308;2023-03-31T20:10:18;0.00;;;0.00;;
41480;SDS011;27217;51.220;5.308;2023-03-31T20:13:24;0.20;;;0.20;;
41480;SDS011;27217;51.220;5.308;2023-03-31T20:16:30;0.00;;;0.00;;
41480;SDS011;27217;51.220;5.308;2023-03-31T20:19:37;0.00;;;0.00;;
41480;SDS011;27217;51.220;5.308;2023-03-31T20:22:42;0.28;;;0.28;;
41480;SDS011;27217;51.220;5.308;2023-03-31T20:25:51;0.00;;;0.00;;
41480;SDS011;27217;51.220;5.308;2023-03-31T20:28:57;0.85;;;0.85;;
41480;SDS011;27217;51.220;5.308;2023-03-31T20:32:02;0.00;;;0.00;;
41480;SDS011;27217;51.220;5.308;2023-03-31T20:35:08;0.00;;;0.00;;
41480;SDS011;27217;51.220;5.308;2023-03-31T20:38:16;0.30;;;0.30;;
41480;SDS011;27217;51.220;5.308;2023-03-31T20:41:23;0.00;;;0.00;;
41480;SDS011;27217;51.220;5.308;2023-03-31T20:44:27;0.00;;;0.00;;
41480;SDS011;27217;51.220;5.308;2023-03-31T20:47:34;0.03;;;0.03;;
41480;SDS011;27217;51.220;5.308;2023-03-31T20:50:39;0.57;;;0.57;;
41480;SDS011;27217;51.220;5.308;2023-03-31T20:53:46;0.00;;;0.00;;
41480;SDS011;27217;51.220;5.308;2023-03-31T20:56:51;0.55;;;0.55;;
41480;SDS011;27217;51.220;5.308;2023-03-31T20:59:56;0.00;;;0.00;;
41480;SDS011;27217;51.220;5.308;2023-03-31T21:03:02;0.90;;;0.63;;
41480;SDS011;27217;51.220;5.308;2023-03-31T21:06:09;0.00;;;0.00;;
41480;SDS011;27217;51.220;5.308;2023-03-31T21:09:13;0.35;;;0.30;;
41480;SDS011;27217;51.220;5.308;2023-03-31T21:12:19;0.00;;;0.00;;
41480;SDS011;27217;51.220;5.308;2023-03-31T21:15:24;0.47;;;0.47;;
41480;SDS011;27217;51.220;5.308;2023-03-31T21:18:31;0.20;;;0.20;;
41480;SDS011;27217;51.220;5.308;2023-03-31T21:21:36;0.00;;;0.00;;
41480;SDS011;27217;51.220;5.308;2023-03-31T21:24:42;0.00;;;0.00;;